createdAt,value
2022-09-05T00:00:25.992Z,1023.16
2022-09-05T00:02:26.119Z,1023.16
2022-09-05T00:04:26.097Z,1023.11
2022-09-05T00:06:25.990Z,1023.11
2022-09-05T00:08:06.352Z,1023.09
2022-09-05T00:10:06.352Z,1023.09
2022-09-05T00:12:36.336Z,1023.07
2022-09-05T00:15:15.188Z,1023.07
2022-09-05T00:16:36.317Z,1023.07
2022-09-05T00:22:25.810Z,1023.07
2022-09-05T00:24:29.591Z,1023.07
2022-09-05T00:24:35.032Z,1023.07
2022-09-05T00:24:50.071Z,1023.15
2022-09-05T00:26:36.349Z,1023.15
2022-09-05T00:28:36.516Z,1023.09
2022-09-05T00:31:51.505Z,1023.09
2022-09-05T00:32:36.403Z,1023.05
2022-09-05T00:34:47.576Z,1023.02
2022-09-05T00:36:36.478Z,1023.02
2022-09-05T00:38:36.868Z,1023.02
2022-09-05T00:40:36.460Z,1023.06
2022-09-05T00:42:36.327Z,1023.12
2022-09-05T00:44:36.393Z,1023.13
2022-09-05T00:46:36.388Z,1023.13
2022-09-05T00:48:36.457Z,1023.13
2022-09-05T00:50:36.366Z,1023.13
2022-09-05T00:52:36.370Z,1023.24
2022-09-05T00:54:41.097Z,1023.24
2022-09-05T00:56:36.371Z,1023.24
2022-09-05T00:58:36.457Z,1023.24
2022-09-05T01:00:36.376Z,1023.24
2022-09-05T01:02:46.511Z,1023.22
2022-09-05T01:04:36.388Z,1023.22
2022-09-05T01:06:36.353Z,1023.22
2022-09-05T01:08:36.416Z,1023.22
2022-09-05T01:10:36.364Z,1023.22
2022-09-05T01:12:39.425Z,1023.08
2022-09-05T01:14:36.376Z,1023.07
2022-09-05T01:16:36.373Z,1023.07
2022-09-05T01:18:36.366Z,1023.10
2022-09-05T01:20:38.480Z,1023.10
2022-09-05T01:22:36.457Z,1023.10
2022-09-05T01:24:36.440Z,1023.11
2022-09-05T01:26:36.400Z,1023.11
2022-09-05T01:29:16.758Z,1023.03
2022-09-05T01:30:36.372Z,1023.03
2022-09-05T01:32:36.382Z,1023.03
2022-09-05T01:34:36.423Z,1023.03
2022-09-05T01:36:36.417Z,1023.03
2022-09-05T01:38:36.400Z,1023.03
2022-09-05T01:40:36.471Z,1022.96
2022-09-05T01:42:36.440Z,1022.96
2022-09-05T01:44:36.416Z,1022.96
2022-09-05T01:46:36.412Z,1022.96
2022-09-05T01:48:37.403Z,1022.96
2022-09-05T01:50:36.437Z,1023.15
2022-09-05T01:52:36.416Z,1023.12
2022-09-05T01:54:36.441Z,1023.12
2022-09-05T01:56:36.410Z,1023.04
2022-09-05T01:58:36.410Z,1023.04
2022-09-05T02:00:36.426Z,1022.97
2022-09-05T02:02:36.493Z,1022.97
2022-09-05T02:04:36.385Z,1022.97
2022-09-05T02:07:19.257Z,1022.97
2022-09-05T02:09:06.451Z,1022.97
2022-09-05T02:11:06.399Z,1022.97
2022-09-05T02:13:06.441Z,1022.97
2022-09-05T02:15:06.433Z,1022.97
2022-09-05T02:17:06.387Z,1023.07
2022-09-05T02:19:06.519Z,1023.08
2022-09-05T02:21:06.443Z,1023.09
2022-09-05T02:23:34.233Z,1023.09
2022-09-05T02:25:30.469Z,1023.09
2022-09-05T02:27:06.454Z,1023.09
2022-09-05T02:29:06.408Z,1023.09
2022-09-05T02:31:19.474Z,1023.09
2022-09-05T02:33:06.430Z,1023.09
2022-09-05T02:35:06.423Z,1022.91
2022-09-05T02:37:06.401Z,1022.91
2022-09-05T02:45:01.542Z,1022.91
2022-09-05T02:45:06.149Z,1022.91
2022-09-05T02:45:08.520Z,1022.80
2022-09-05T02:45:25.649Z,1022.84
2022-09-05T02:47:06.573Z,1022.84
2022-09-05T02:49:17.687Z,1022.84
2022-09-05T02:57:24.007Z,1022.84
2022-09-05T02:57:24.666Z,1022.77
2022-09-05T02:57:33.107Z,1022.77
2022-09-05T02:57:42.485Z,1022.62
2022-09-05T02:59:09.919Z,1022.62
2022-09-05T03:01:06.486Z,1022.62
2022-09-05T03:03:06.499Z,1022.68
2022-09-05T03:05:06.476Z,1022.68
2022-09-05T03:07:06.476Z,1022.72
2022-09-05T03:09:09.863Z,1022.72
2022-09-05T03:11:06.440Z,1022.72
2022-09-05T03:13:06.496Z,1022.72
2022-09-05T03:15:20.836Z,1022.72
2022-09-05T03:17:06.472Z,1022.76
2022-09-05T03:19:06.547Z,1022.76
2022-09-05T03:21:09.680Z,1022.77
2022-09-05T03:23:06.435Z,1022.77
2022-09-05T03:25:06.463Z,1022.70
2022-09-05T03:27:06.484Z,1022.70
2022-09-05T03:29:06.480Z,1022.70
2022-09-05T03:31:06.523Z,1022.70
2022-09-05T03:33:06.484Z,1022.68
2022-09-05T03:35:08.705Z,1022.68
2022-09-05T03:37:06.552Z,1022.68
2022-09-05T03:39:06.468Z,1022.61
2022-09-05T03:41:06.455Z,1022.60
2022-09-05T03:43:06.474Z,1022.62
2022-09-05T03:45:06.472Z,1022.62
2022-09-05T03:47:06.551Z,1022.62
2022-09-05T03:51:02.986Z,1022.61
2022-09-05T03:55:03.297Z,1022.61
2022-09-05T03:57:14.288Z,1022.75
2022-09-05T03:57:18.178Z,1022.61
2022-09-05T03:57:32.520Z,1022.75
2022-09-05T03:59:06.615Z,1022.71
2022-09-05T04:01:10.611Z,1022.79
2022-09-05T04:08:10.154Z,1022.78
2022-09-05T04:08:15.589Z,1022.78
2022-09-05T04:08:17.616Z,1022.80
2022-09-05T04:09:50.123Z,1022.80
2022-09-05T04:11:36.489Z,1022.80
2022-09-05T04:13:36.531Z,1022.78
2022-09-05T04:15:36.534Z,1022.75
2022-09-05T04:17:36.525Z,1022.77
2022-09-05T04:19:36.519Z,1022.77
2022-09-05T04:21:36.524Z,1022.76
2022-09-05T04:23:36.631Z,1022.76
2022-09-05T04:25:36.494Z,1022.76
2022-09-05T04:27:36.538Z,1022.76
2022-09-05T04:29:36.493Z,1022.76
2022-09-05T04:31:36.549Z,1022.76
2022-09-05T04:33:37.267Z,1022.76
2022-09-05T04:35:36.521Z,1022.76
2022-09-05T04:37:48.816Z,1022.76
2022-09-05T04:39:36.545Z,1022.78
2022-09-05T04:41:39.949Z,1022.78
2022-09-05T04:43:36.539Z,1022.78
2022-09-05T04:45:36.553Z,1022.79
2022-09-05T04:47:36.554Z,1022.79
2022-09-05T04:49:36.547Z,1022.79
2022-09-05T04:51:36.499Z,1022.91
2022-09-05T04:53:36.623Z,1022.91
2022-09-05T04:55:36.523Z,1023.00
2022-09-05T04:57:36.526Z,1023.00
2022-09-05T05:02:45.971Z,1023.02
2022-09-05T05:06:05.614Z,1023.02
2022-09-05T05:06:12.239Z,1023.02
2022-09-05T05:06:20.303Z,1023.11
2022-09-05T05:07:36.639Z,1023.11
2022-09-05T05:09:36.679Z,1023.15
2022-09-05T05:17:54.383Z,1023.15
2022-09-05T05:17:57.193Z,1023.24
2022-09-05T05:18:02.407Z,1023.24
2022-09-05T05:18:07.465Z,1023.24
2022-09-05T05:19:36.601Z,1023.31
2022-09-05T05:21:36.541Z,1023.31
2022-09-05T05:23:36.541Z,1023.31
2022-09-05T05:25:36.569Z,1023.31
2022-09-05T05:27:36.541Z,1023.37
2022-09-05T05:29:36.743Z,1023.31
2022-09-05T05:31:36.598Z,1023.34
2022-09-05T05:33:36.586Z,1023.36
2022-09-05T05:35:47.913Z,1023.36
2022-09-05T05:37:36.572Z,1023.38
2022-09-05T05:39:36.580Z,1023.40
2022-09-05T05:41:36.580Z,1023.40
2022-09-05T05:43:36.662Z,1023.40
2022-09-05T05:45:36.591Z,1023.38
2022-09-05T05:47:36.588Z,1023.38
2022-09-05T05:49:36.583Z,1023.38
2022-09-05T05:52:01.792Z,1023.38
2022-09-05T05:53:43.679Z,1023.38
2022-09-05T05:55:52.159Z,1023.38
2022-09-05T05:57:36.591Z,1023.40
2022-09-05T05:59:36.615Z,1023.41
2022-09-05T06:01:37.593Z,1023.39
2022-09-05T06:04:06.636Z,1023.39
2022-09-05T06:06:06.589Z,1023.42
2022-09-05T06:10:00.440Z,1023.43
2022-09-05T06:14:53.255Z,1023.44
2022-09-05T06:14:57.363Z,1023.44
2022-09-05T06:15:00.802Z,1023.43
2022-09-05T06:16:06.819Z,1023.46
2022-09-05T06:18:06.596Z,1023.47
2022-09-05T06:22:07.380Z,1023.41
2022-09-05T06:22:13.239Z,1023.41
2022-09-05T06:24:06.607Z,1023.44
2022-09-05T06:26:06.652Z,1023.46
2022-09-05T06:28:18.670Z,1023.46
2022-09-05T06:30:06.585Z,1023.47
2022-09-05T06:32:06.674Z,1023.47
2022-09-05T06:34:06.715Z,1023.47
2022-09-05T06:36:06.634Z,1023.47
2022-09-05T06:38:06.640Z,1023.48
2022-09-05T06:40:06.768Z,1023.48
2022-09-05T06:42:06.620Z,1023.47
2022-09-05T06:44:06.703Z,1023.47
2022-09-05T06:46:06.869Z,1023.47
2022-09-05T06:48:06.659Z,1023.48
2022-09-05T06:50:26.780Z,1023.48
2022-09-05T06:52:28.958Z,1023.48
2022-09-05T06:54:06.625Z,1023.46
2022-09-05T06:56:06.743Z,1023.46
2022-09-05T06:58:06.700Z,1023.48
2022-09-05T07:00:06.743Z,1023.48
2022-09-05T07:02:06.807Z,1023.50
2022-09-05T07:04:06.693Z,1023.52
2022-09-05T07:06:06.869Z,1023.50
2022-09-05T07:08:21.741Z,1023.51
2022-09-05T07:12:17.449Z,1023.52
2022-09-05T07:14:17.403Z,1023.52
2022-09-05T07:16:17.479Z,1023.52
2022-09-05T07:18:17.477Z,1023.52
2022-09-05T07:20:17.438Z,1023.57
2022-09-05T07:22:29.486Z,1023.56
2022-09-05T07:24:29.744Z,1023.61
2022-09-05T07:26:51.292Z,1023.60
2022-09-05T07:28:28.396Z,1023.60
2022-09-05T07:30:17.439Z,1023.60
2022-09-05T07:32:20.185Z,1023.59
2022-09-05T07:34:21.518Z,1023.60
2022-09-05T07:36:17.452Z,1023.63
2022-09-05T07:38:17.453Z,1023.63
2022-09-05T07:40:25.865Z,1023.64
2022-09-05T07:42:17.438Z,1023.63
2022-09-05T07:44:17.489Z,1023.65
2022-09-05T07:46:17.565Z,1023.65
2022-09-05T07:48:17.457Z,1023.65
2022-09-05T07:54:45.328Z,1023.67
2022-09-05T07:56:52.513Z,1023.64
2022-09-05T07:56:54.262Z,1023.64
2022-09-05T07:57:09.945Z,1023.64
2022-09-05T07:58:17.544Z,1023.65
2022-09-05T08:00:27.064Z,1023.66
2022-09-05T08:02:17.504Z,1023.68
2022-09-05T08:04:17.516Z,1023.71
2022-09-05T08:06:50.721Z,1023.71
2022-09-05T08:08:17.467Z,1023.71
2022-09-05T08:10:17.471Z,1023.71
2022-09-05T08:12:17.520Z,1023.76
2022-09-05T08:14:45.460Z,1023.76
2022-09-05T08:16:17.545Z,1023.76
2022-09-05T08:18:17.483Z,1023.68
2022-09-05T08:20:17.555Z,1023.69
2022-09-05T08:22:17.552Z,1023.69
2022-09-05T08:24:17.726Z,1023.69
2022-09-05T08:26:17.594Z,1023.70
2022-09-05T08:28:17.535Z,1023.70
2022-09-05T08:30:27.508Z,1023.70
2022-09-05T08:32:17.537Z,1023.67
2022-09-05T08:34:17.544Z,1023.67
2022-09-05T08:36:17.572Z,1023.67
2022-09-05T08:38:17.482Z,1023.62
2022-09-05T08:40:17.551Z,1023.64
2022-09-05T08:42:17.490Z,1023.64
2022-09-05T08:46:44.797Z,1023.62
2022-09-05T08:46:49.644Z,1023.56
2022-09-05T08:48:47.543Z,1023.56
2022-09-05T08:52:47.860Z,1023.61
2022-09-05T08:54:47.515Z,1023.61
2022-09-05T08:56:47.521Z,1023.61
2022-09-05T08:58:47.549Z,1023.61
2022-09-05T09:00:50.449Z,1023.61
2022-09-05T09:02:48.881Z,1023.65
2022-09-05T09:05:02.148Z,1023.65
2022-09-05T09:07:26.227Z,1023.65
2022-09-05T09:08:47.599Z,1023.65
2022-09-05T09:10:47.645Z,1023.58
2022-09-05T09:12:50.595Z,1023.58
2022-09-05T09:14:47.641Z,1023.58
2022-09-05T09:16:47.563Z,1023.58
2022-09-05T09:18:47.542Z,1023.63
2022-09-05T09:20:47.607Z,1023.63
2022-09-05T09:22:47.605Z,1023.54
2022-09-05T09:24:54.101Z,1023.54
2022-09-05T09:26:47.649Z,1023.54
2022-09-05T09:28:51.465Z,1023.54
2022-09-05T09:30:47.593Z,1023.54
2022-09-05T09:32:47.556Z,1023.54
2022-09-05T09:34:49.219Z,1023.54
2022-09-05T09:36:47.568Z,1023.54
2022-09-05T09:38:47.550Z,1023.54
2022-09-05T09:40:52.461Z,1023.52
2022-09-05T09:42:47.550Z,1023.52
2022-09-05T09:44:47.568Z,1023.52
2022-09-05T09:46:47.574Z,1023.52
2022-09-05T09:48:47.562Z,1023.52
2022-09-05T09:50:58.547Z,1023.51
2022-09-05T09:52:47.590Z,1023.51
2022-09-05T09:54:47.665Z,1023.49
2022-09-05T09:56:47.555Z,1023.49
2022-09-05T09:58:47.558Z,1023.43
2022-09-05T10:00:47.591Z,1023.43
2022-09-05T10:04:48.062Z,1023.43
2022-09-05T10:10:39.831Z,1023.45
2022-09-05T10:10:54.673Z,1023.40
2022-09-05T10:11:09.344Z,1023.41
2022-09-05T10:12:49.797Z,1023.37
2022-09-05T10:14:50.798Z,1023.37
2022-09-05T10:16:47.592Z,1023.42
2022-09-05T10:18:47.592Z,1023.42
2022-09-05T10:20:55.240Z,1023.42
2022-09-05T10:22:47.593Z,1023.38
2022-09-05T10:24:47.667Z,1023.38
2022-09-05T10:26:47.606Z,1023.32
2022-09-05T10:28:47.635Z,1023.34
2022-09-05T10:32:56.018Z,1023.34
2022-09-05T10:35:09.879Z,1023.31
2022-09-05T10:35:14.559Z,1023.31
2022-09-05T10:36:47.592Z,1023.31
2022-09-05T10:38:47.634Z,1023.31
2022-09-05T10:41:21.282Z,1023.31
2022-09-05T10:44:47.603Z,1023.20
2022-09-05T10:46:51.112Z,1023.20
2022-09-05T10:48:52.390Z,1023.20
2022-09-05T10:51:27.376Z,1023.20
2022-09-05T10:53:17.660Z,1023.20
2022-09-05T10:55:17.648Z,1023.20
2022-09-05T10:57:17.675Z,1023.20
2022-09-05T11:01:37.539Z,1023.20
2022-09-05T11:02:23.586Z,1023.20
2022-09-05T11:03:24.879Z,1023.20
2022-09-05T11:05:17.678Z,1023.20
2022-09-05T11:07:17.716Z,1023.08
2022-09-05T11:09:17.624Z,1023.08
2022-09-05T11:11:28.400Z,1023.08
2022-09-05T11:13:17.753Z,1023.08
2022-09-05T11:15:17.695Z,1023.08
2022-09-05T11:17:17.649Z,1023.08
2022-09-05T11:19:17.692Z,1023.08
2022-09-05T11:21:17.683Z,1023.03
2022-09-05T11:23:17.756Z,1023.03
2022-09-05T11:25:18.231Z,1023.03
2022-09-05T11:27:25.016Z,1023.03
2022-09-05T11:29:17.710Z,1023.03
2022-09-05T11:31:17.715Z,1023.03
2022-09-05T11:38:13.187Z,1023.03
2022-09-05T11:39:57.409Z,1023.03
2022-09-05T11:39:57.726Z,1023.03
2022-09-05T11:39:59.039Z,1023.03
2022-09-05T11:41:18.487Z,1022.74
2022-09-05T11:43:17.703Z,1022.74
2022-09-05T11:45:17.694Z,1022.74
2022-09-05T11:47:30.018Z,1022.74
2022-09-05T11:49:17.677Z,1022.75
2022-09-05T11:51:17.660Z,1022.75
2022-09-05T11:53:17.696Z,1022.76
2022-09-05T11:55:20.744Z,1022.76
2022-09-05T11:57:32.658Z,1022.71
2022-09-05T11:59:32.961Z,1022.71
2022-09-05T12:01:43.441Z,1022.71
2022-09-05T12:03:57.170Z,1022.71
2022-09-05T12:05:48.590Z,1022.71
2022-09-05T12:07:30.442Z,1022.79
2022-09-05T12:09:20.361Z,1022.75
2022-09-05T12:11:17.708Z,1022.71
2022-09-05T12:13:17.707Z,1022.66
2022-09-05T12:15:17.812Z,1022.66
2022-09-05T12:19:19.658Z,1022.63
2022-09-05T12:21:19.892Z,1022.63
2022-09-05T12:23:31.233Z,1022.63
2022-09-05T12:25:53.531Z,1022.52
2022-09-05T12:27:41.087Z,1022.52
2022-09-05T12:29:29.000Z,1022.52
2022-09-05T12:32:34.481Z,1022.53
2022-09-05T12:36:05.481Z,1022.53
2022-09-05T12:36:11.850Z,1022.53
2022-09-05T12:40:58.022Z,1022.54
2022-09-05T12:40:59.567Z,1022.54
2022-09-05T12:41:37.080Z,1022.47
2022-09-05T12:44:38.039Z,1022.47
2022-09-05T12:45:18.034Z,1022.47
2022-09-05T12:47:19.338Z,1022.54
2022-09-05T12:49:17.814Z,1022.47
2022-09-05T12:51:45.146Z,1022.47
2022-09-05T12:53:17.812Z,1022.47
2022-09-05T12:55:17.830Z,1022.44
2022-09-05T13:00:24.207Z,1022.45
2022-09-05T13:03:06.201Z,1022.38
2022-09-05T13:03:12.458Z,1022.36
2022-09-05T13:04:13.402Z,1022.36
2022-09-05T13:05:48.912Z,1022.36
2022-09-05T13:07:47.793Z,1022.34
2022-09-05T13:11:55.744Z,1022.32
2022-09-05T13:14:50.041Z,1022.21
2022-09-05T13:14:58.078Z,1022.22
2022-09-05T13:15:47.982Z,1022.22
2022-09-05T13:17:47.819Z,1022.22
2022-09-05T13:19:47.930Z,1022.22
2022-09-05T13:21:47.828Z,1022.22
2022-09-05T13:23:50.663Z,1022.22
2022-09-05T13:25:47.850Z,1022.22
2022-09-05T13:27:47.845Z,1021.97
2022-09-05T13:31:10.972Z,1021.97
2022-09-05T13:37:55.247Z,1021.93
2022-09-05T13:38:04.295Z,1021.93
2022-09-05T13:38:10.404Z,1021.93
2022-09-05T13:38:29.415Z,1021.94
2022-09-05T13:39:47.971Z,1021.95
2022-09-05T13:41:47.876Z,1021.90
2022-09-05T13:45:49.243Z,1021.87
2022-09-05T13:47:49.400Z,1021.91
2022-09-05T13:49:48.024Z,1021.88
2022-09-05T13:51:47.844Z,1021.88
2022-09-05T13:55:47.870Z,1021.88
2022-09-05T13:57:47.935Z,1021.77
2022-09-05T14:05:48.104Z,1021.71
2022-09-05T14:07:47.819Z,1021.63
2022-09-05T14:11:47.872Z,1021.61
2022-09-05T14:15:52.067Z,1021.58
2022-09-05T14:19:43.497Z,1021.60
2022-09-05T14:21:39.865Z,1021.60
2022-09-05T14:23:40.174Z,1021.58
2022-09-05T14:27:39.879Z,1021.52
2022-09-05T14:32:13.679Z,1021.52
2022-09-05T14:37:36.451Z,1021.53
2022-09-05T14:37:39.028Z,1021.49
2022-09-05T14:37:43.659Z,1021.53
2022-09-05T14:38:14.520Z,1021.47
2022-09-05T14:40:29.715Z,1021.47
2022-09-05T14:42:10.098Z,1021.47
2022-09-05T14:44:09.931Z,1021.41
2022-09-05T14:46:09.949Z,1021.43
2022-09-05T14:48:09.998Z,1021.43
2022-09-05T14:50:14.947Z,1021.45
2022-09-05T14:52:12.817Z,1021.42
2022-09-05T14:54:10.013Z,1021.41
2022-09-05T14:57:27.275Z,1021.35
2022-09-05T15:02:39.167Z,1021.35
2022-09-05T15:02:48.693Z,1021.36
2022-09-05T15:02:50.648Z,1021.32
2022-09-05T15:04:36.369Z,1021.34
2022-09-05T15:06:10.009Z,1021.31
2022-09-05T15:08:33.205Z,1021.31
2022-09-05T15:12:19.834Z,1021.26
2022-09-05T15:12:26.337Z,1021.29
2022-09-05T15:14:09.960Z,1021.30
2022-09-05T15:16:10.096Z,1021.25
2022-09-05T15:18:09.932Z,1021.25
2022-09-05T15:20:09.972Z,1021.24
2022-09-05T15:22:10.014Z,1021.24
2022-09-05T15:24:14.358Z,1021.18
2022-09-05T15:26:10.959Z,1021.18
2022-09-05T15:28:10.993Z,1021.15
2022-09-05T15:30:09.959Z,1021.13
2022-09-05T15:32:10.389Z,1021.13
2022-09-05T15:34:09.981Z,1021.15
2022-09-05T15:36:09.979Z,1021.15
2022-09-05T15:38:10.029Z,1021.12
2022-09-05T15:40:23.934Z,1021.09
2022-09-05T15:42:09.960Z,1021.06
2022-09-05T15:44:10.146Z,1021.05
2022-09-05T15:46:10.012Z,1021.05
2022-09-05T15:48:10.095Z,1021.03
2022-09-05T15:50:21.923Z,1021.03
2022-09-05T15:52:10.021Z,1021.04
2022-09-05T15:54:10.713Z,1021.04
2022-09-05T15:56:09.936Z,1021.03
2022-09-05T15:58:10.005Z,1021.03
2022-09-05T16:00:09.982Z,1021.03
2022-09-05T16:02:10.137Z,1021.03
2022-09-05T16:10:30.390Z,1021.03
2022-09-05T16:10:38.772Z,1021.01
2022-09-05T16:10:41.440Z,1021.02
2022-09-05T16:10:46.390Z,1020.98
2022-09-05T16:12:16.628Z,1021.00
2022-09-05T16:14:09.983Z,1021.00
2022-09-05T16:22:26.650Z,1021.01
2022-09-05T16:23:15.523Z,1020.96
2022-09-05T16:23:23.749Z,1021.00
2022-09-05T16:23:28.687Z,1021.00
2022-09-05T16:24:10.150Z,1020.98
2022-09-05T16:26:10.049Z,1021.00
2022-09-05T16:28:10.000Z,1020.97
2022-09-05T16:30:15.402Z,1020.94
2022-09-05T16:32:10.081Z,1020.94
2022-09-05T16:34:12.065Z,1020.92
2022-09-05T16:36:14.106Z,1020.89
2022-09-05T16:38:50.075Z,1020.85
2022-09-05T16:40:40.405Z,1020.85
2022-09-05T16:42:46.615Z,1020.85
2022-09-05T16:44:40.210Z,1020.82
2022-09-05T16:46:40.081Z,1020.82
2022-09-05T16:48:42.072Z,1020.83
2022-09-05T16:50:40.027Z,1020.79
2022-09-05T16:52:40.181Z,1020.77
2022-09-05T16:54:40.104Z,1020.77
2022-09-05T16:56:40.913Z,1020.73
2022-09-05T16:58:39.998Z,1020.72
2022-09-05T17:00:40.044Z,1020.70
2022-09-05T17:02:41.279Z,1020.67
2022-09-05T17:04:40.108Z,1020.67
2022-09-05T17:06:45.716Z,1020.66
2022-09-05T17:08:40.122Z,1020.66
2022-09-05T17:10:40.244Z,1020.58
2022-09-05T17:12:40.162Z,1020.59
2022-09-05T17:14:40.049Z,1020.59
2022-09-05T17:16:40.135Z,1020.55
2022-09-05T17:18:40.050Z,1020.56
2022-09-05T17:20:40.119Z,1020.55
2022-09-05T17:25:14.030Z,1020.55
2022-09-05T17:29:18.221Z,1020.55
2022-09-05T17:29:25.567Z,1020.50
2022-09-05T17:29:37.958Z,1020.51
2022-09-05T17:32:40.049Z,1020.47
2022-09-05T17:34:42.177Z,1020.47
2022-09-05T17:36:42.423Z,1020.47
2022-09-05T17:38:40.127Z,1020.46
2022-09-05T17:40:40.443Z,1020.48
2022-09-05T17:42:40.136Z,1020.48
2022-09-05T17:44:40.204Z,1020.48
2022-09-05T17:46:40.201Z,1020.48
2022-09-05T17:48:40.109Z,1020.49
2022-09-05T17:50:40.080Z,1020.49
2022-09-05T17:52:40.100Z,1020.49
2022-09-05T17:54:49.964Z,1020.48
2022-09-05T17:58:50.111Z,1020.59
2022-09-05T18:00:40.220Z,1020.59
2022-09-05T18:02:40.184Z,1020.63
2022-09-05T18:04:40.123Z,1020.63
2022-09-05T18:06:40.238Z,1020.63
2022-09-05T18:08:40.182Z,1020.63
2022-09-05T18:10:41.203Z,1020.63
2022-09-05T18:13:31.280Z,1020.66
2022-09-05T18:14:42.806Z,1020.66
2022-09-05T18:19:33.241Z,1020.66
2022-09-05T18:20:40.314Z,1020.66
2022-09-05T18:22:41.215Z,1020.69
2022-09-05T18:24:40.303Z,1020.69
2022-09-05T18:26:40.197Z,1020.69
2022-09-05T18:28:40.274Z,1020.69
2022-09-05T18:30:41.357Z,1020.79
2022-09-05T18:32:40.247Z,1020.79
2022-09-05T18:34:43.678Z,1020.79
2022-09-05T18:36:40.118Z,1020.79
2022-09-05T18:38:50.922Z,1020.79
2022-09-05T18:40:40.204Z,1020.79
2022-09-05T18:42:40.189Z,1020.87
2022-09-05T18:44:40.312Z,1020.87
2022-09-05T18:46:40.235Z,1020.87
2022-09-05T18:50:09.879Z,1020.87
2022-09-05T18:51:13.006Z,1020.87
2022-09-05T18:53:13.048Z,1020.87
2022-09-05T18:56:09.684Z,1020.94
2022-09-05T18:57:26.720Z,1020.94
2022-09-05T18:59:10.678Z,1020.92
2022-09-05T19:01:10.211Z,1020.91
2022-09-05T19:03:10.259Z,1020.90
2022-09-05T19:05:15.888Z,1020.89
2022-09-05T19:07:10.112Z,1020.89
2022-09-05T19:09:10.424Z,1020.83
2022-09-05T19:11:28.181Z,1020.82
2022-09-05T19:13:10.295Z,1020.87
2022-09-05T19:15:10.260Z,1020.88
2022-09-05T19:17:10.232Z,1020.88
2022-09-05T19:19:10.154Z,1020.92
2022-09-05T19:21:12.084Z,1020.93
2022-09-05T19:23:12.908Z,1020.93
2022-09-05T19:25:10.330Z,1020.93
2022-09-05T19:28:35.031Z,1020.93
2022-09-05T19:36:45.017Z,1020.90
2022-09-05T19:37:04.344Z,1020.87
2022-09-05T19:37:08.543Z,1020.87
2022-09-05T19:37:15.101Z,1020.90
2022-09-05T19:37:29.083Z,1020.83
2022-09-05T19:42:01.801Z,1020.87
2022-09-05T19:47:25.612Z,1020.88
2022-09-05T19:47:42.048Z,1020.90
2022-09-05T19:47:42.432Z,1020.90
2022-09-05T19:47:51.669Z,1020.90
2022-09-05T19:49:10.316Z,1020.90
2022-09-05T19:51:16.042Z,1020.82
2022-09-05T19:53:10.255Z,1020.82
2022-09-05T19:55:10.221Z,1020.74
2022-09-05T19:57:10.265Z,1020.74
2022-09-05T19:59:10.225Z,1020.67
2022-09-05T20:01:11.327Z,1020.67
2022-09-05T20:03:10.272Z,1020.67
2022-09-05T20:05:10.136Z,1020.67
2022-09-05T20:07:10.415Z,1020.67
2022-09-05T20:09:10.237Z,1020.63
2022-09-05T20:11:12.796Z,1020.63
2022-09-05T20:13:10.272Z,1020.63
2022-09-05T20:15:10.398Z,1020.59
2022-09-05T20:17:10.221Z,1020.55
2022-09-05T20:19:10.595Z,1020.54
2022-09-05T20:21:28.152Z,1020.54
2022-09-05T20:23:28.192Z,1020.54
2022-09-05T20:25:34.952Z,1020.55
2022-09-05T20:27:28.273Z,1020.55
2022-09-05T20:29:54.014Z,1020.55
2022-09-05T20:31:28.117Z,1020.55
2022-09-05T20:33:29.254Z,1020.56
2022-09-05T20:39:41.047Z,1020.51
2022-09-05T20:43:10.938Z,1020.49
2022-09-05T20:43:17.744Z,1020.49
2022-09-05T20:43:18.456Z,1020.49
2022-09-05T20:43:37.145Z,1020.59
2022-09-05T20:45:28.156Z,1020.64
2022-09-05T20:50:11.611Z,1020.64
2022-09-05T20:54:06.588Z,1020.69
2022-09-05T20:54:20.342Z,1020.69
2022-09-05T20:54:25.000Z,1020.66
2022-09-05T20:55:40.144Z,1020.65
2022-09-05T20:57:29.116Z,1020.71
2022-09-05T20:59:31.859Z,1020.71
2022-09-05T21:01:28.291Z,1020.73
2022-09-05T21:03:28.520Z,1020.74
2022-09-05T21:05:28.307Z,1020.66
2022-09-05T21:09:28.383Z,1020.66
2022-09-05T21:11:29.341Z,1020.65
2022-09-05T21:13:28.357Z,1020.65
2022-09-05T21:15:52.239Z,1020.63
2022-09-05T21:17:28.271Z,1020.63
2022-09-05T21:19:28.273Z,1020.63
2022-09-05T21:21:29.887Z,1020.55
2022-09-05T21:23:28.226Z,1020.55
2022-09-05T21:25:28.282Z,1020.55
2022-09-05T21:27:28.348Z,1020.55
2022-09-05T21:29:32.656Z,1020.55
2022-09-05T21:31:28.324Z,1020.65
2022-09-05T21:33:45.074Z,1020.54
2022-09-05T21:35:34.445Z,1020.52
2022-09-05T21:37:28.237Z,1020.52
2022-09-05T21:39:28.290Z,1020.52
2022-09-05T21:41:28.339Z,1020.58
2022-09-05T21:45:33.786Z,1020.58
2022-09-05T21:47:33.495Z,1020.58
2022-09-05T21:47:48.554Z,1020.58
2022-09-05T21:49:31.301Z,1020.58
2022-09-05T21:51:28.329Z,1020.58
2022-09-05T21:55:38.821Z,1020.58
2022-09-05T21:59:17.483Z,1020.58
2022-09-05T21:59:29.388Z,1020.61
2022-09-05T21:59:36.589Z,1020.60
2022-09-05T22:01:58.306Z,1020.60
2022-09-05T22:03:58.337Z,1020.60
2022-09-05T22:05:59.154Z,1020.60
2022-09-05T22:07:58.284Z,1020.60
2022-09-05T22:09:58.326Z,1020.60
2022-09-05T22:11:58.214Z,1020.49
2022-09-05T22:13:58.260Z,1020.49
2022-09-05T22:15:58.408Z,1020.49
2022-09-05T22:18:16.701Z,1020.49
2022-09-05T22:19:58.258Z,1020.49
2022-09-05T22:21:58.268Z,1020.40
2022-09-05T22:23:58.391Z,1020.40
2022-09-05T22:25:58.294Z,1020.40
2022-09-05T22:27:58.388Z,1020.40
2022-09-05T22:29:58.277Z,1020.40
2022-09-05T22:31:58.498Z,1020.40
2022-09-05T22:33:58.334Z,1020.34
2022-09-05T22:35:58.263Z,1020.27
2022-09-05T22:37:59.801Z,1020.27
2022-09-05T22:39:58.375Z,1020.30
2022-09-05T22:41:58.331Z,1020.30
2022-09-05T22:43:58.309Z,1020.30
2022-09-05T22:45:58.356Z,1020.30
2022-09-05T22:47:58.311Z,1020.30
2022-09-05T22:49:58.292Z,1020.30
2022-09-05T22:51:58.174Z,1020.29
2022-09-05T22:53:58.195Z,1020.29
2022-09-05T22:55:58.174Z,1020.29
2022-09-05T22:57:58.222Z,1020.29
2022-09-05T22:59:58.210Z,1020.29
2022-09-05T23:01:58.292Z,1020.29
2022-09-05T23:03:58.219Z,1020.14
2022-09-05T23:05:58.191Z,1020.14
2022-09-05T23:07:58.264Z,1020.18
2022-09-05T23:09:58.207Z,1020.18
2022-09-05T23:11:58.207Z,1020.04
2022-09-05T23:13:58.228Z,1020.04
2022-09-05T23:15:58.240Z,1020.04
2022-09-05T23:17:58.260Z,1020.04
2022-09-05T23:19:58.239Z,1020.01
2022-09-05T23:21:58.244Z,1020.01
2022-09-05T23:23:58.196Z,1020.01
2022-09-05T23:25:58.242Z,1020.01
2022-09-05T23:27:58.225Z,1020.01
2022-09-05T23:29:58.218Z,1020.01
2022-09-05T23:31:58.221Z,1020.01
2022-09-05T23:33:58.261Z,1020.01
2022-09-05T23:35:58.207Z,1020.16
2022-09-05T23:37:58.268Z,1020.16
2022-09-05T23:39:58.265Z,1020.12
2022-09-05T23:41:58.191Z,1020.11
2022-09-05T23:43:58.217Z,1020.11
2022-09-05T23:45:58.367Z,1020.11
2022-09-05T23:47:58.205Z,1020.11
2022-09-05T23:49:58.380Z,1020.06
2022-09-05T23:51:58.198Z,1020.02
2022-09-05T23:53:58.228Z,1020.02
2022-09-05T23:55:58.239Z,1020.02
2022-09-05T23:57:58.206Z,1019.95
2022-09-05T23:59:58.215Z,1019.95
